• Join FlightAware (Why Join?)
  • Login
  • US Flag 
05:05AM EDT


 

Airport Tracker/Info


-or-


 

Live Flight TrackerFlight Track Log ✈ FDX1908 ✈ 24-Jun-2013 ✈ KSYR - KEWR

Flight Track Log - Related Links

Times and Time Zones

All times are in EDT time to prevent confusion due to time zone crossing. See the FDX1908 flight status page for this flight to view local times or setup timezone preferences in your user account.

Time Position Orientation Groundspeed Altitude Reporting Facility
EDT Latitude Longitude Course Direction KTS MPH feet Rate Location/Type
10:23PM 43.1100 -76.0900 85° East 173 199 1,200  Level FlightAware
10:24PM 43.1120 -76.0540 86° East 227 261 2,200 2,340 Climbing FlightAware
10:24PM 43.0960 -76.0130 118° Southeast 260 299 3,500 3,060 Climbing FlightAware
10:25PM 43.0660 -75.9890 150° Southeast 279 321 5,200 3,840 Climbing FlightAware
10:25PM 43.0490 -75.9790 157° South 282 325 6,200 4,320 Climbing FlightAware
10:25PM 43.0140 -75.9590 157° South 291 335 8,300 3,420 Climbing FlightAware
10:26PM 42.9750 -75.9360 157° South 306 352 9,600 2,880 Climbing FlightAware
10:26PM 42.9220 -75.9050 157° South 310 357 11,700 3,480 Climbing FlightAware
10:27PM 42.8680 -75.8730 157° South 323 372 14,300 3,360 Climbing FlightAware
10:28PM 42.8030 -75.8350 157° South 342 394 16,600 1,800 Climbing FlightAware
10:29PM 42.7450 -75.7960 154° Southeast 349 402 16,900 180 Climbing FlightAware
10:29PM 42.6820 -75.7510 152° Southeast 345 397 16,900  Level FlightAware
10:30PM 42.6240 -75.7090 152° Southeast 367 422 16,900  Level FlightAware
10:31PM 42.5630 -75.6670 153° Southeast 375 432 16,900  Level FlightAware
10:31PM 42.4960 -75.6190 152° Southeast 369 425 16,900  Level FlightAware
10:32PM 42.4290 -75.5720 153° Southeast 362 417 16,900  Level FlightAware
10:33PM 42.3650 -75.5280 153° Southeast 361 415 16,900  Level FlightAware
10:34PM 42.2650 -75.4570 152° Southeast 356 410 16,900  Level FlightAware
10:35PM 42.2190 -75.4240 152° Southeast 356 410 16,900  Level FlightAware
10:35PM 42.1600 -75.3820 152° Southeast 356 410 16,900  Level FlightAware
10:36PM 42.0750 -75.3200 152° Southeast 361 415 16,900  Level FlightAware
10:37PM 42.0160 -75.2650 145° Southeast 361 415 16,900  Level FlightAware
10:38PM 41.9710 -75.2220 145° Southeast 361 415 16,900  Level FlightAware
10:38PM 41.9870 -75.1140 79° East 354 407 16,900 -660 Level FlightAware
10:39PM 41.9540 -75.0280 117° Southeast 353 406 16,300 -660 Descending FlightAware
10:39PM 41.9280 -74.9590 117° Southeast 353 406 16,000 -240 Descending FlightAware
10:40PM 41.9030 -74.8940 117° Southeast 353 406 16,000  Level FlightAware
10:41PM 41.8730 -74.8140 117° Southeast 353 406 16,000  Level FlightAware
10:41PM 41.8500 -74.7540 117° Southeast 353 406 16,000  Level FlightAware
10:42PM 41.8120 -74.6550 117° Southeast 353 406 16,000 -1,320 Level FlightAware
10:48PM 41.4650 -74.3680 148° Southeast 274 315 7,200 -1,260 Descending FlightAware ADS-B
10:50PM 41.3411 -74.4207 198° South 271 312 6,900 -180 Descending FlightAware ADS-B
10:50PM 41.2964 -74.4402 198° South 270 311 6,900  Level FlightAware ADS-B
10:51PM 41.2674 -74.4526 198° South 273 314 6,900  Level FlightAware ADS-B
10:51PM 41.2505 -74.4598 198° South 266 306 6,900  Level FlightAware ADS-B
10:51PM 41.2330 -74.4675 198° South 260 299 6,900  Level FlightAware ADS-B
10:51PM 41.2288 -74.4689 194° South 247 284 6,900 -420 Level FlightAware ADS-B
10:52PM 41.2161 -74.4744 198° South 238 274 6,800 -840 Descending FlightAware ADS-B
10:52PM 41.1802 -74.4899 198° South 244 281 6,300 -960 Descending FlightAware ADS-B
10:52PM 41.1626 -74.4973 198° South 237 273 6,000 -720 Descending FlightAware ADS-B
10:53PM 41.1461 -74.5047 199° South 227 261 5,900 -360 Descending FlightAware ADS-B
10:53PM 41.1455 -74.5051 207° Southwest 227 261 5,900  Level FlightAware ADS-B
10:53PM 41.1294 -74.5115 197° South 228 262 5,900  Level FlightAware ADS-B
10:53PM 41.1221 -74.5150 200° South 229 264 5,900  Level FlightAware ADS-B
10:53PM 41.1124 -74.5189 197° South 231 266 5,900  Level FlightAware ADS-B
10:53PM 41.1066 -74.5214 198° South 231 266 5,900  Level FlightAware ADS-B
10:53PM 41.1013 -74.5234 196° South 229 264 5,900  Level FlightAware ADS-B
10:54PM 41.0982 -74.5244 194° South 229 264 5,900  Level FlightAware ADS-B
10:54PM 41.0953 -74.5249 187° South 228 262 5,900  Level FlightAware ADS-B
10:54PM 41.0899 -74.5249 180° South 231 266 5,900  Level FlightAware ADS-B
10:54PM 41.0858 -74.5243 174° South 233 268 5,900  Level FlightAware ADS-B
10:54PM 41.0824 -74.5227 160° South 236 272 5,900  Level FlightAware ADS-B
10:54PM 41.0773 -74.5195 155° Southeast 240 276 5,900  Level FlightAware ADS-B
10:54PM 41.0733 -74.5162 148° Southeast 242 278 5,900  Level FlightAware ADS-B
10:54PM 41.0670 -74.5074 134° Southeast 247 284 5,900  Level FlightAware ADS-B
10:54PM 41.0641 -74.5010 121° Southeast 249 287 5,900  Level FlightAware ADS-B
10:54PM 41.0629 -74.4968 111° Southeast 246 283 5,900  Level FlightAware ADS-B
10:54PM 41.0614 -74.4895 105° East 250 288 5,900 -540 Level FlightAware ADS-B
10:54PM 41.0609 -74.4803 94° East 248 285 5,800 -600 Descending FlightAware ADS-B
10:54PM 41.0609 -74.4757 90° East 248 285 5,800 -780 Level FlightAware ADS-B
10:55PM 41.0618 -74.4560 87° East 248 285 5,600 -840 Descending FlightAware ADS-B
10:55PM 41.0620 -74.4531 85° East 249 287 5,600 -1,140 Level FlightAware ADS-B
10:55PM 41.0629 -74.4317 87° East 249 287 5,300 -1,440 Descending FlightAware ADS-B
10:55PM 41.0632 -74.4256 86° East 249 287 5,200 -1,320 Descending FlightAware ADS-B
10:55PM 41.0643 -74.4011 87° East 249 287 4,900 -600 Descending FlightAware ADS-B
10:55PM 41.0653 -74.3783 87° East 247 284 4,900  Level FlightAware ADS-B
10:56PM 41.0690 -74.3112 86° East 250 288 4,900  Level FlightAware ADS-B
10:56PM 41.0702 -74.2899 86° East 250 288 4,900  Level FlightAware ADS-B
10:57PM 41.0701 -74.2792 91° East 250 288 4,900  Level FlightAware ADS-B
10:57PM 41.0691 -74.2716 100° East 248 285 4,900  Level FlightAware ADS-B
10:57PM 41.0675 -74.2659 110° East 247 284 4,900  Level FlightAware ADS-B
10:57PM 41.0639 -74.2579 121° Southeast 244 281 4,900  Level FlightAware ADS-B
10:57PM 41.0587 -74.2501 131° Southeast 241 277 4,900  Level FlightAware ADS-B
10:57PM 41.0543 -74.2452 140° Southeast 241 277 4,900  Level FlightAware ADS-B
10:57PM 41.0505 -74.2406 138° Southeast 240 276 4,900 -600 Level FlightAware ADS-B
10:57PM 41.0365 -74.2263 142° Southeast 238 274 4,700 -1,020 Descending FlightAware ADS-B
10:58PM 41.0230 -74.2130 143° Southeast 237 273 4,400 -1,320 Descending FlightAware ADS-B
10:58PM 41.0074 -74.1970 142° Southeast 236 272 4,000 -900 Descending FlightAware ADS-B
10:58PM 40.9937 -74.1832 143° Southeast 234 269 3,900 -600 Descending FlightAware ADS-B
10:59PM 40.9550 -74.1450 143° Southeast 229 264 3,400 -540 Descending FlightAware
11:00PM 40.9250 -74.1170 145° Southeast 228 262 3,200 -480 Descending FlightAware
11:00PM 40.8978 -74.0916 145° Southeast 196 226 2,900 -420 Descending FlightAware ADS-B
11:00PM 40.8847 -74.0865 164° South 195 224 2,900  Level FlightAware ADS-B
11:01PM 40.8742 -74.0848 173° South 191 220 2,900  Level FlightAware ADS-B
11:01PM 40.8607 -74.0827 173° South 190 219 2,900  Level FlightAware ADS-B
11:01PM 40.8517 -74.0814 174° South 190 219 2,900  Level FlightAware ADS-B
11:01PM 40.8389 -74.0796 174° South 186 214 2,900  Level FlightAware ADS-B
11:01PM 40.8359 -74.0795 179° South 187 215 2,900 -780 Level FlightAware ADS-B
11:01PM 40.8316 -74.0802 187° South 189 217 2,800 -1,380 Descending FlightAware ADS-B
11:01PM 40.8286 -74.0814 197° South 188 216 2,700 -900 Descending FlightAware ADS-B
11:01PM 40.8258 -74.0823 194° South 188 216 2,700 -840 Level FlightAware ADS-B
11:02PM 40.8167 -74.0862 198° South 178 205 2,500 -960 Descending FlightAware ADS-B
11:02PM 40.7965 -74.0981 204° Southwest 181 208 2,100 -1,080 Descending FlightAware ADS-B
11:02PM 40.7860 -74.1050 206° Southwest 181 208 1,800 -1,080 Descending FlightAware ADS-B
11:03PM 40.7746 -74.1123 206° Southwest 181 208 1,600 -960 Descending FlightAware ADS-B
11:03PM 40.7623 -74.1202 206° Southwest 167 192 1,300 -960 Descending FlightAware ADS-B
11:03PM 40.7522 -74.1265 205° Southwest 152 175 1,100 -780 Descending FlightAware ADS-B
11:03PM 40.7432 -74.1326 207° Southwest 137 158 900 -720 Descending FlightAware ADS-B
11:04PM 40.7297 -74.1409 205° Southwest 124 143 600 -660 Descending FlightAware ADS-B
11:05PM 40.7054 -74.1565 206° Southwest 116 133 100 -600 Descending FlightAware ADS-B
11:07PM 40.6810 -74.1740 211° Southwest 10 12 -60 Descending FlightAware
11:08PM 40.6800 -74.1770 246° West 13 15  Level FlightAware